createdAt,value
2023-02-28T00:02:32.960Z,-3.40
2023-02-28T00:05:11.905Z,-3.40
2023-02-28T00:10:34.903Z,-3.50
2023-02-28T00:13:22.843Z,-3.60
2023-02-28T00:16:09.370Z,-3.60
2023-02-28T00:18:42.509Z,-3.70
2023-02-28T00:21:14.581Z,-3.70
2023-02-28T00:23:53.666Z,-3.80
2023-02-28T00:26:28.976Z,-3.90
2023-02-28T00:29:04.883Z,-3.90
2023-02-28T00:31:55.495Z,-4.00
2023-02-28T00:37:22.565Z,-4.20
2023-02-28T00:40:06.263Z,-4.30
2023-02-28T00:42:49.609Z,-4.40
2023-02-28T00:46:21.861Z,-4.50
2023-02-28T00:49:48.489Z,-4.60
2023-02-28T00:52:43.040Z,-4.80
2023-02-28T00:55:55.384Z,-5.00
2023-02-28T01:53:12.331Z,-6.60
2023-02-28T02:55:24.938Z,-6.70
2023-02-28T02:58:53.042Z,-6.60
2023-02-28T03:02:05.558Z,-6.50
2023-02-28T03:05:50.630Z,-6.40
2023-02-28T03:47:42.964Z,-5.90
2023-02-28T03:51:37.704Z,-5.80
2023-02-28T04:19:10.060Z,-5.60
2023-02-28T04:22:29.917Z,-5.60
2023-02-28T04:26:22.152Z,-5.40
2023-02-28T04:32:52.661Z,-5.30
2023-02-28T04:50:55.189Z,-5.10
2023-02-28T04:53:39.765Z,-5.10
2023-02-28T04:56:57.782Z,-5.00
2023-02-28T05:03:20.204Z,-5.00
2023-02-28T05:06:25.838Z,-4.90
2023-02-28T05:09:01.931Z,-4.90
2023-02-28T05:12:12.991Z,-4.80
2023-02-28T05:15:24.670Z,-4.80
2023-02-28T05:18:15.453Z,-4.80
2023-02-28T05:21:53.506Z,-4.80
2023-02-28T05:24:51.198Z,-4.80
2023-02-28T05:28:22.130Z,-4.80
2023-02-28T05:52:08.507Z,-5.10
2023-02-28T05:55:22.707Z,-5.20
2023-02-28T06:05:07.425Z,-5.50
2023-02-28T06:08:39.575Z,-5.60
2023-02-28T06:22:22.766Z,-5.80
2023-02-28T06:38:51.662Z,-5.60
2023-02-28T06:42:02.636Z,-5.60
2023-02-28T06:44:46.772Z,-5.50
2023-02-28T06:47:33.675Z,-5.40
2023-02-28T06:50:07.985Z,-5.20
2023-02-28T06:55:28.824Z,-4.90
2023-02-28T06:58:07.077Z,-4.70
2023-02-28T07:01:17.356Z,-4.50
2023-02-28T07:03:57.983Z,-4.20
2023-02-28T07:09:52.845Z,-3.70
2023-02-28T07:12:47.688Z,-3.40
2023-02-28T07:15:37.691Z,-3.20
2023-02-28T07:18:25.352Z,-3.00
2023-02-28T07:21:38.629Z,-2.80
2023-02-28T07:24:15.036Z,-2.60
2023-02-28T07:27:04.478Z,-2.40
2023-02-28T07:29:45.346Z,-2.20
2023-02-28T07:32:21.202Z,-2.10
2023-02-28T07:34:53.522Z,-1.90
2023-02-28T07:37:25.213Z,-1.70
2023-02-28T07:39:53.817Z,-1.40
2023-02-28T07:42:22.497Z,-0.90
2023-02-28T07:44:52.703Z,-0.60
2023-02-28T07:47:22.694Z,-0.40
2023-02-28T07:49:52.420Z,-0.20
2023-02-28T07:52:22.271Z,0.00
2023-02-28T07:54:50.586Z,0.30
2023-02-28T07:57:19.315Z,0.90
2023-02-28T07:59:47.587Z,1.00
2023-02-28T08:02:16.948Z,1.30
2023-02-28T08:04:45.984Z,1.70
2023-02-28T08:07:15.545Z,1.90
2023-02-28T08:09:46.392Z,1.80
2023-02-28T08:12:15.947Z,2.10
2023-02-28T08:14:44.871Z,2.20
2023-02-28T08:17:17.367Z,2.30
2023-02-28T08:19:48.204Z,2.20
2023-02-28T08:22:16.535Z,2.00
2023-02-28T08:24:46.805Z,1.70
2023-02-28T08:27:15.320Z,1.50
2023-02-28T08:29:43.594Z,1.60
2023-02-28T08:32:27.190Z,1.70
2023-02-28T08:34:57.647Z,1.90
2023-02-28T08:37:26.159Z,1.90
2023-02-28T08:39:56.590Z,2.00
2023-02-28T08:42:25.168Z,2.30
2023-02-28T08:44:53.488Z,2.30
2023-02-28T08:47:22.257Z,2.40
2023-02-28T08:49:51.089Z,2.40
2023-02-28T08:52:19.563Z,2.30
2023-02-28T08:54:49.496Z,2.40
2023-02-28T08:57:19.525Z,2.70
2023-02-28T08:59:50.586Z,3.10
2023-02-28T09:02:19.014Z,3.90
2023-02-28T09:04:50.010Z,3.20
2023-02-28T09:07:18.370Z,2.60
2023-02-28T09:09:55.708Z,3.20
2023-02-28T09:12:26.984Z,3.70
2023-02-28T09:14:55.385Z,4.10
2023-02-28T09:17:24.090Z,4.40
2023-02-28T09:19:59.262Z,4.20
2023-02-28T09:22:29.875Z,3.60
2023-02-28T09:25:06.735Z,2.70
2023-02-28T09:27:36.639Z,2.90
2023-02-28T09:30:06.462Z,2.90
2023-02-28T09:32:34.957Z,2.70
2023-02-28T09:35:03.367Z,3.30
2023-02-28T09:37:32.254Z,3.40
2023-02-28T09:40:02.218Z,3.60
2023-02-28T09:42:36.240Z,3.20
2023-02-28T09:45:14.379Z,3.50
2023-02-28T09:47:46.874Z,4.10
2023-02-28T09:50:23.128Z,4.50
2023-02-28T09:52:52.607Z,5.20
2023-02-28T09:55:27.571Z,5.30
2023-02-28T09:58:00.895Z,4.60
2023-02-28T10:00:36.419Z,4.70
2023-02-28T10:03:25.657Z,4.60
2023-02-28T10:05:58.726Z,4.70
2023-02-28T10:08:31.446Z,3.90
2023-02-28T10:11:02.785Z,4.10
2023-02-28T10:13:38.344Z,4.50
2023-02-28T10:16:12.890Z,4.80
2023-02-28T10:18:48.317Z,5.20
2023-02-28T10:21:23.287Z,5.70
2023-02-28T10:23:58.505Z,5.80
2023-02-28T10:26:31.593Z,5.90
2023-02-28T10:29:02.025Z,5.80
2023-02-28T10:31:30.614Z,5.90
2023-02-28T10:33:59.017Z,5.30
2023-02-28T10:36:27.991Z,4.90
2023-02-28T10:39:10.514Z,4.10
2023-02-28T10:41:45.058Z,2.90
2023-02-28T10:44:24.580Z,2.60
2023-02-28T10:46:53.592Z,2.50
2023-02-28T10:49:24.772Z,2.70
2023-02-28T10:51:57.903Z,3.40
2023-02-28T10:54:30.875Z,3.60
2023-02-28T10:57:18.789Z,2.90
2023-02-28T10:59:52.942Z,2.50
2023-02-28T11:05:30.144Z,3.00
2023-02-28T11:08:05.968Z,3.20
2023-02-28T11:10:35.956Z,3.50
2023-02-28T11:13:08.229Z,3.80
2023-02-28T11:15:39.146Z,3.70
2023-02-28T11:18:24.811Z,3.80
2023-02-28T11:20:56.603Z,3.70
2023-02-28T11:23:28.898Z,3.70
2023-02-28T11:26:01.110Z,3.90
2023-02-28T11:28:33.613Z,3.80
2023-02-28T11:31:17.908Z,3.00
2023-02-28T11:33:51.334Z,2.90
2023-02-28T11:36:25.804Z,2.80
2023-02-28T11:38:56.400Z,2.80
2023-02-28T11:41:44.060Z,2.70
2023-02-28T11:44:25.830Z,2.60
2023-02-28T11:47:01.201Z,2.40
2023-02-28T11:49:37.038Z,2.10
2023-02-28T11:52:12.905Z,2.00
2023-02-28T11:55:02.673Z,2.10
2023-02-28T11:57:45.785Z,2.10
2023-02-28T12:00:32.726Z,2.30
2023-02-28T12:03:13.814Z,2.30
2023-02-28T12:05:47.965Z,2.20
2023-02-28T12:08:28.458Z,2.00
2023-02-28T12:11:07.997Z,1.70
2023-02-28T12:13:48.460Z,1.70
2023-02-28T12:16:39.756Z,1.50
2023-02-28T12:19:22.564Z,1.30
2023-02-28T12:22:14.055Z,1.30
2023-02-28T12:24:57.108Z,1.50
2023-02-28T12:27:29.347Z,1.60
2023-02-28T12:30:01.181Z,1.60
2023-02-28T12:32:34.436Z,1.60
2023-02-28T12:35:08.754Z,1.60
2023-02-28T12:37:41.187Z,1.60
2023-02-28T12:40:14.890Z,1.60
2023-02-28T12:42:48.345Z,1.60
2023-02-28T12:45:21.828Z,1.50
2023-02-28T12:47:57.605Z,1.50
2023-02-28T12:50:29.321Z,1.50
2023-02-28T12:53:04.668Z,1.50
2023-02-28T12:55:40.450Z,1.50
2023-02-28T12:58:15.793Z,1.50
2023-02-28T13:01:00.741Z,1.60
2023-02-28T13:03:59.857Z,1.70
2023-02-28T13:07:01.195Z,1.80
2023-02-28T13:09:30.729Z,1.80
2023-02-28T13:12:00.376Z,1.80
2023-02-28T13:14:32.179Z,1.80
2023-02-28T13:17:04.735Z,1.80
2023-02-28T13:19:35.615Z,1.90
2023-02-28T13:22:06.843Z,1.90
2023-02-28T13:24:48.432Z,1.90
2023-02-28T13:27:41.116Z,1.90
2023-02-28T13:30:47.842Z,1.60
2023-02-28T13:33:35.420Z,1.70
2023-02-28T13:40:05.476Z,2.00
2023-02-28T14:47:42.343Z,1.90
2023-02-28T14:50:34.901Z,1.90
2023-02-28T14:53:06.460Z,1.90
2023-02-28T14:58:54.586Z,1.80
2023-02-28T15:18:54.350Z,1.50
2023-02-28T15:21:28.285Z,1.40
2023-02-28T15:24:18.107Z,1.40
2023-02-28T15:32:41.887Z,1.40
2023-02-28T15:35:41.997Z,1.40
2023-02-28T15:38:34.397Z,1.40
2023-02-28T15:41:09.208Z,1.30
2023-02-28T15:43:51.408Z,1.40
2023-02-28T15:46:24.675Z,1.40
2023-02-28T15:48:58.229Z,1.40
2023-02-28T15:51:31.817Z,1.40
2023-02-28T15:54:03.143Z,1.30
2023-02-28T15:56:40.425Z,1.10
2023-02-28T15:59:16.246Z,1.00
2023-02-28T16:01:44.808Z,0.90
2023-02-28T16:04:18.163Z,0.80
2023-02-28T16:06:47.319Z,0.70
2023-02-28T16:09:17.789Z,0.60
2023-02-28T16:11:49.658Z,0.50
2023-02-28T16:14:24.147Z,0.40
2023-02-28T16:16:54.204Z,0.30
2023-02-28T16:19:23.114Z,0.10
2023-02-28T16:21:52.345Z,0.00
2023-02-28T16:24:20.921Z,-0.20
2023-02-28T16:26:53.443Z,-0.30
2023-02-28T16:29:29.263Z,-0.50
2023-02-28T16:31:58.076Z,-0.60
2023-02-28T16:34:28.465Z,-0.80
2023-02-28T16:36:57.126Z,-0.90
2023-02-28T16:39:34.233Z,-1.10
2023-02-28T16:42:10.766Z,-1.20
2023-02-28T16:44:39.595Z,-1.40
2023-02-28T16:47:08.715Z,-1.50
2023-02-28T16:49:51.693Z,-1.60
2023-02-28T16:52:20.665Z,-1.70
2023-02-28T16:54:49.995Z,-1.80
2023-02-28T16:58:11.352Z,-1.90
2023-02-28T17:00:41.551Z,-2.10
2023-02-28T17:03:32.582Z,-2.10
2023-02-28T17:06:03.756Z,-2.20
2023-02-28T17:11:22.687Z,-2.30
2023-02-28T17:14:05.694Z,-2.40
2023-02-28T17:16:51.954Z,-2.50
2023-02-28T17:28:52.565Z,-2.60
2023-02-28T17:42:50.192Z,-2.90
2023-02-28T17:45:40.046Z,-3.00
2023-02-28T17:48:19.430Z,-3.10
2023-02-28T17:50:57.629Z,-3.20
2023-02-28T17:53:46.464Z,-3.30
2023-02-28T17:56:25.466Z,-3.30
2023-02-28T17:59:04.523Z,-3.30
2023-02-28T18:01:36.052Z,-3.40
2023-02-28T18:08:23.238Z,-3.50
2023-02-28T18:23:08.129Z,-3.70
2023-02-28T18:25:45.027Z,-3.70
2023-02-28T18:28:16.653Z,-3.80
2023-02-28T18:30:51.115Z,-3.80
2023-02-28T18:33:22.458Z,-3.80
2023-02-28T18:36:17.486Z,-3.80
2023-02-28T18:38:57.785Z,-3.90
2023-02-28T18:41:31.292Z,-3.80
2023-02-28T18:44:21.138Z,-3.90
2023-02-28T18:52:22.079Z,-4.00
2023-02-28T18:55:21.035Z,-4.10
2023-02-28T18:58:04.810Z,-4.20
2023-02-28T19:01:01.279Z,-4.20
2023-02-28T19:03:45.001Z,-4.30
2023-02-28T20:07:43.131Z,-4.90
